sensor_id;sensor_type;location;lat;lon;timestamp;P1;durP1;ratioP1;P2;durP2;ratioP2
13279;SDS011;6708;49.814;8.652;2023-12-14T00:00:09;4.03;;;3.73;;
13279;SDS011;6708;49.814;8.652;2023-12-14T00:02:38;4.07;;;3.77;;
13279;SDS011;6708;49.814;8.652;2023-12-14T00:05:07;4.43;;;4.07;;
13279;SDS011;6708;49.814;8.652;2023-12-14T00:07:36;4.97;;;4.60;;
13279;SDS011;6708;49.814;8.652;2023-12-14T00:10:05;4.47;;;4.17;;
13279;SDS011;6708;49.814;8.652;2023-12-14T00:12:34;4.43;;;4.20;;
13279;SDS011;6708;49.814;8.652;2023-12-14T00:15:02;4.50;;;4.07;;
13279;SDS011;6708;49.814;8.652;2023-12-14T00:17:33;5.30;;;4.33;;
13279;SDS011;6708;49.814;8.652;2023-12-14T00:20:02;5.03;;;4.73;;
13279;SDS011;6708;49.814;8.652;2023-12-14T00:22:31;4.37;;;4.17;;
13279;SDS011;6708;49.814;8.652;2023-12-14T00:24:59;4.50;;;4.20;;
13279;SDS011;6708;49.814;8.652;2023-12-14T00:27:28;6.10;;;5.50;;
13279;SDS011;6708;49.814;8.652;2023-12-14T00:29:56;5.60;;;5.20;;
13279;SDS011;6708;49.814;8.652;2023-12-14T00:32:24;4.00;;;3.80;;
13279;SDS011;6708;49.814;8.652;2023-12-14T00:34:55;3.83;;;3.63;;
13279;SDS011;6708;49.814;8.652;2023-12-14T00:37:24;4.07;;;3.87;;
13279;SDS011;6708;49.814;8.652;2023-12-14T00:39:52;4.53;;;4.20;;
13279;SDS011;6708;49.814;8.652;2023-12-14T00:42:21;4.40;;;4.10;;
13279;SDS011;6708;49.814;8.652;2023-12-14T00:44:49;5.07;;;4.47;;
13279;SDS011;6708;49.814;8.652;2023-12-14T00:47:18;4.37;;;4.00;;
13279;SDS011;6708;49.814;8.652;2023-12-14T00:49:43;8.13;;;3.87;;
13279;SDS011;6708;49.814;8.652;2023-12-14T00:52:14;4.13;;;3.93;;
13279;SDS011;6708;49.814;8.652;2023-12-14T00:54:43;5.03;;;4.67;;
13279;SDS011;6708;49.814;8.652;2023-12-14T00:57:11;5.37;;;4.90;;
13279;SDS011;6708;49.814;8.652;2023-12-14T00:59:39;4.60;;;4.20;;
13279;SDS011;6708;49.814;8.652;2023-12-14T01:02:08;4.50;;;4.20;;
13279;SDS011;6708;49.814;8.652;2023-12-14T01:04:36;5.37;;;4.97;;
13279;SDS011;6708;49.814;8.652;2023-12-14T01:07:05;4.47;;;4.23;;
13279;SDS011;6708;49.814;8.652;2023-12-14T01:09:36;4.67;;;4.37;;
13279;SDS011;6708;49.814;8.652;2023-12-14T01:12:04;5.00;;;4.70;;
13279;SDS011;6708;49.814;8.652;2023-12-14T01:14:33;7.23;;;6.10;;
13279;SDS011;6708;49.814;8.652;2023-12-14T01:17:01;5.60;;;5.20;;
13279;SDS011;6708;49.814;8.652;2023-12-14T01:19:30;5.07;;;4.40;;
13279;SDS011;6708;49.814;8.652;2023-12-14T01:21:58;4.80;;;4.50;;
13279;SDS011;6708;49.814;8.652;2023-12-14T01:24:26;4.00;;;3.80;;
13279;SDS011;6708;49.814;8.652;2023-12-14T01:26:57;4.87;;;4.50;;
13279;SDS011;6708;49.814;8.652;2023-12-14T01:29:25;5.00;;;4.70;;
13279;SDS011;6708;49.814;8.652;2023-12-14T01:31:54;5.37;;;4.97;;
13279;SDS011;6708;49.814;8.652;2023-12-14T01:34:22;6.00;;;5.50;;
13279;SDS011;6708;49.814;8.652;2023-12-14T01:36:52;6.07;;;5.47;;
13279;SDS011;6708;49.814;8.652;2023-12-14T01:39:20;6.17;;;5.63;;
13279;SDS011;6708;49.814;8.652;2023-12-14T01:41:48;5.50;;;5.10;;
13279;SDS011;6708;49.814;8.652;2023-12-14T01:44:19;5.80;;;5.27;;
13279;SDS011;6708;49.814;8.652;2023-12-14T01:46:48;5.00;;;4.60;;
13279;SDS011;6708;49.814;8.652;2023-12-14T01:49:16;5.60;;;5.10;;
13279;SDS011;6708;49.814;8.652;2023-12-14T01:51:44;5.20;;;4.80;;
13279;SDS011;6708;49.814;8.652;2023-12-14T01:54:13;5.67;;;5.27;;
13279;SDS011;6708;49.814;8.652;2023-12-14T01:56:41;6.83;;;6.03;;
13279;SDS011;6708;49.814;8.652;2023-12-14T01:59:11;6.00;;;5.40;;
13279;SDS011;6708;49.814;8.652;2023-12-14T02:01:42;5.43;;;4.93;;
13279;SDS011;6708;49.814;8.652;2023-12-14T02:04:12;6.10;;;5.50;;
13279;SDS011;6708;49.814;8.652;2023-12-14T02:06:41;8.60;;;5.00;;
13279;SDS011;6708;49.814;8.652;2023-12-14T02:09:10;4.97;;;4.57;;
13279;SDS011;6708;49.814;8.652;2023-12-14T02:11:38;5.40;;;4.93;;
13279;SDS011;6708;49.814;8.652;2023-12-14T02:14:08;5.30;;;4.90;;
13279;SDS011;6708;49.814;8.652;2023-12-14T02:16:37;5.00;;;4.70;;
13279;SDS011;6708;49.814;8.652;2023-12-14T02:19:08;4.20;;;4.00;;
13279;SDS011;6708;49.814;8.652;2023-12-14T02:21:37;5.10;;;4.60;;
13279;SDS011;6708;49.814;8.652;2023-12-14T02:24:08;5.20;;;4.80;;
13279;SDS011;6708;49.814;8.652;2023-12-14T02:26:36;5.40;;;5.00;;
13279;SDS011;6708;49.814;8.652;2023-12-14T02:29:04;5.47;;;4.97;;
13279;SDS011;6708;49.814;8.652;2023-12-14T02:31:33;4.80;;;4.40;;
13279;SDS011;6708;49.814;8.652;2023-12-14T02:34:01;4.30;;;4.00;;
13279;SDS011;6708;49.814;8.652;2023-12-14T02:36:29;4.10;;;3.80;;
13279;SDS011;6708;49.814;8.652;2023-12-14T02:38:58;6.47;;;4.57;;
13279;SDS011;6708;49.814;8.652;2023-12-14T02:41:29;4.73;;;4.43;;
13279;SDS011;6708;49.814;8.652;2023-12-14T02:43:57;5.53;;;5.10;;
13279;SDS011;6708;49.814;8.652;2023-12-14T02:46:25;6.53;;;4.60;;
13279;SDS011;6708;49.814;8.652;2023-12-14T02:48:53;5.60;;;5.20;;
13279;SDS011;6708;49.814;8.652;2023-12-14T02:51:22;5.13;;;4.60;;
13279;SDS011;6708;49.814;8.652;2023-12-14T02:53:50;5.47;;;5.07;;
13279;SDS011;6708;49.814;8.652;2023-12-14T02:56:19;5.83;;;5.40;;
13279;SDS011;6708;49.814;8.652;2023-12-14T02:58:49;6.17;;;5.60;;
13279;SDS011;6708;49.814;8.652;2023-12-14T03:01:19;8.03;;;6.03;;
13279;SDS011;6708;49.814;8.652;2023-12-14T03:03:48;5.57;;;5.17;;
13279;SDS011;6708;49.814;8.652;2023-12-14T03:06:16;6.50;;;5.90;;
13279;SDS011;6708;49.814;8.652;2023-12-14T03:08:44;6.90;;;6.40;;
13279;SDS011;6708;49.814;8.652;2023-12-14T03:11:20;7.87;;;6.53;;
13279;SDS011;6708;49.814;8.652;2023-12-14T03:13:52;7.67;;;6.57;;
13279;SDS011;6708;49.814;8.652;2023-12-14T03:16:20;6.23;;;5.73;;
13279;SDS011;6708;49.814;8.652;2023-12-14T03:18:49;10.23;;;6.43;;
13279;SDS011;6708;49.814;8.652;2023-12-14T03:21:17;6.30;;;5.77;;
13279;SDS011;6708;49.814;8.652;2023-12-14T03:23:45;7.10;;;6.50;;
13279;SDS011;6708;49.814;8.652;2023-12-14T03:26:14;6.33;;;5.83;;
13279;SDS011;6708;49.814;8.652;2023-12-14T03:28:42;7.00;;;6.30;;
13279;SDS011;6708;49.814;8.652;2023-12-14T03:31:13;6.40;;;5.80;;
13279;SDS011;6708;49.814;8.652;2023-12-14T03:33:42;6.97;;;6.37;;
13279;SDS011;6708;49.814;8.652;2023-12-14T03:36:10;7.70;;;7.00;;
13279;SDS011;6708;49.814;8.652;2023-12-14T03:38:39;7.00;;;6.33;;
13279;SDS011;6708;49.814;8.652;2023-12-14T03:41:07;7.93;;;6.90;;
13279;SDS011;6708;49.814;8.652;2023-12-14T03:43:36;6.77;;;6.23;;
13279;SDS011;6708;49.814;8.652;2023-12-14T03:46:04;7.10;;;6.30;;
13279;SDS011;6708;49.814;8.652;2023-12-14T03:48:36;7.33;;;6.63;;
13279;SDS011;6708;49.814;8.652;2023-12-14T03:51:05;6.40;;;5.80;;
13279;SDS011;6708;49.814;8.652;2023-12-14T03:53:33;7.73;;;5.87;;
13279;SDS011;6708;49.814;8.652;2023-12-14T03:56:02;6.13;;;5.63;;
13279;SDS011;6708;49.814;8.652;2023-12-14T03:58:31;5.90;;;5.40;;
13279;SDS011;6708;49.814;8.652;2023-12-14T04:01:00;6.30;;;5.70;;
13279;SDS011;6708;49.814;8.652;2023-12-14T04:03:28;7.37;;;6.53;;
13279;SDS011;6708;49.814;8.652;2023-12-14T04:06:00;7.57;;;6.83;;
13279;SDS011;6708;49.814;8.652;2023-12-14T04:08:28;6.17;;;5.77;;
13279;SDS011;6708;49.814;8.652;2023-12-14T04:10:56;7.37;;;6.67;;
13279;SDS011;6708;49.814;8.652;2023-12-14T04:13:24;7.17;;;6.57;;
13279;SDS011;6708;49.814;8.652;2023-12-14T04:15:53;7.00;;;6.30;;
13279;SDS011;6708;49.814;8.652;2023-12-14T04:18:22;8.07;;;6.43;;
13279;SDS011;6708;49.814;8.652;2023-12-14T04:20:51;7.20;;;6.60;;
13279;SDS011;6708;49.814;8.652;2023-12-14T04:23:22;6.67;;;6.07;;
13279;SDS011;6708;49.814;8.652;2023-12-14T04:25:51;6.97;;;6.37;;
13279;SDS011;6708;49.814;8.652;2023-12-14T04:28:20;7.70;;;7.00;;
13279;SDS011;6708;49.814;8.652;2023-12-14T04:30:48;8.53;;;7.70;;
13279;SDS011;6708;49.814;8.652;2023-12-14T04:33:16;8.17;;;6.50;;
13279;SDS011;6708;49.814;8.652;2023-12-14T04:35:45;6.70;;;6.10;;
13279;SDS011;6708;49.814;8.652;2023-12-14T04:38:13;6.03;;;5.60;;
13279;SDS011;6708;49.814;8.652;2023-12-14T04:40:44;8.10;;;6.33;;
13279;SDS011;6708;49.814;8.652;2023-12-14T04:43:13;6.40;;;5.80;;
13279;SDS011;6708;49.814;8.652;2023-12-14T04:45:41;6.30;;;5.80;;
13279;SDS011;6708;49.814;8.652;2023-12-14T04:48:09;6.83;;;5.50;;
13279;SDS011;6708;49.814;8.652;2023-12-14T04:50:38;6.43;;;5.83;;
13279;SDS011;6708;49.814;8.652;2023-12-14T04:53:06;6.70;;;6.10;;
13279;SDS011;6708;49.814;8.652;2023-12-14T04:55:34;6.17;;;5.57;;
13279;SDS011;6708;49.814;8.652;2023-12-14T04:58:05;6.27;;;5.70;;
13279;SDS011;6708;49.814;8.652;2023-12-14T05:00:34;5.60;;;5.20;;
13279;SDS011;6708;49.814;8.652;2023-12-14T05:03:02;10.90;;;6.43;;
13279;SDS011;6708;49.814;8.652;2023-12-14T05:05:31;7.90;;;7.17;;
13279;SDS011;6708;49.814;8.652;2023-12-14T05:07:59;8.03;;;7.23;;
13279;SDS011;6708;49.814;8.652;2023-12-14T05:10:27;7.83;;;7.10;;
13279;SDS011;6708;49.814;8.652;2023-12-14T05:12:56;7.67;;;7.07;;
13279;SDS011;6708;49.814;8.652;2023-12-14T05:15:27;7.47;;;6.77;;
13279;SDS011;6708;49.814;8.652;2023-12-14T05:17:55;7.67;;;6.97;;
13279;SDS011;6708;49.814;8.652;2023-12-14T05:20:24;7.57;;;6.97;;
13279;SDS011;6708;49.814;8.652;2023-12-14T05:22:52;8.57;;;7.67;;
13279;SDS011;6708;49.814;8.652;2023-12-14T05:25:21;8.20;;;7.47;;
13279;SDS011;6708;49.814;8.652;2023-12-14T05:27:49;10.20;;;7.80;;
13279;SDS011;6708;49.814;8.652;2023-12-14T05:30:17;11.13;;;8.97;;
13279;SDS011;6708;49.814;8.652;2023-12-14T05:32:48;13.43;;;10.00;;
13279;SDS011;6708;49.814;8.652;2023-12-14T05:35:17;12.67;;;9.93;;
13279;SDS011;6708;49.814;8.652;2023-12-14T05:37:45;11.17;;;8.90;;
13279;SDS011;6708;49.814;8.652;2023-12-14T05:40:14;12.07;;;9.37;;
13279;SDS011;6708;49.814;8.652;2023-12-14T05:42:42;10.80;;;9.07;;
13279;SDS011;6708;49.814;8.652;2023-12-14T05:45:10;9.37;;;8.33;;
13279;SDS011;6708;49.814;8.652;2023-12-14T05:47:39;9.73;;;8.80;;
13279;SDS011;6708;49.814;8.652;2023-12-14T05:50:10;10.47;;;9.40;;
13279;SDS011;6708;49.814;8.652;2023-12-14T05:52:38;10.30;;;9.40;;
13279;SDS011;6708;49.814;8.652;2023-12-14T05:55:08;8.63;;;7.73;;
13279;SDS011;6708;49.814;8.652;2023-12-14T05:57:37;8.63;;;7.77;;
13279;SDS011;6708;49.814;8.652;2023-12-14T06:00:06;7.90;;;7.20;;
13279;SDS011;6708;49.814;8.652;2023-12-14T06:02:35;8.60;;;7.80;;
13279;SDS011;6708;49.814;8.652;2023-12-14T06:05:05;8.17;;;7.33;;
13279;SDS011;6708;49.814;8.652;2023-12-14T06:07:37;8.53;;;7.80;;
13279;SDS011;6708;49.814;8.652;2023-12-14T06:10:06;10.03;;;8.37;;
13279;SDS011;6708;49.814;8.652;2023-12-14T06:12:35;7.60;;;6.90;;
13279;SDS011;6708;49.814;8.652;2023-12-14T06:15:04;7.00;;;6.40;;
13279;SDS011;6708;49.814;8.652;2023-12-14T06:17:33;7.13;;;6.53;;
13279;SDS011;6708;49.814;8.652;2023-12-14T06:20:04;8.10;;;7.37;;
13279;SDS011;6708;49.814;8.652;2023-12-14T06:22:38;9.50;;;8.60;;
13279;SDS011;6708;49.814;8.652;2023-12-14T06:25:07;12.33;;;9.17;;
13279;SDS011;6708;49.814;8.652;2023-12-14T06:27:36;10.60;;;8.93;;
13279;SDS011;6708;49.814;8.652;2023-12-14T06:30:05;8.13;;;7.40;;
13279;SDS011;6708;49.814;8.652;2023-12-14T06:32:35;8.47;;;7.60;;
13279;SDS011;6708;49.814;8.652;2023-12-14T06:35:04;7.87;;;7.17;;
13279;SDS011;6708;49.814;8.652;2023-12-14T06:37:31;7.67;;;6.97;;
13279;SDS011;6708;49.814;8.652;2023-12-14T06:40:04;8.60;;;7.80;;
13279;SDS011;6708;49.814;8.652;2023-12-14T06:42:33;9.17;;;8.43;;
13279;SDS011;6708;49.814;8.652;2023-12-14T06:45:02;10.23;;;9.10;;
13279;SDS011;6708;49.814;8.652;2023-12-14T06:47:31;9.00;;;8.10;;
13279;SDS011;6708;49.814;8.652;2023-12-14T06:49:59;9.30;;;8.40;;
13279;SDS011;6708;49.814;8.652;2023-12-14T06:52:28;14.47;;;10.17;;
13279;SDS011;6708;49.814;8.652;2023-12-14T06:54:56;9.90;;;8.83;;
13279;SDS011;6708;49.814;8.652;2023-12-14T06:57:27;9.17;;;8.33;;
13279;SDS011;6708;49.814;8.652;2023-12-14T06:59:55;8.07;;;7.33;;
13279;SDS011;6708;49.814;8.652;2023-12-14T07:02:24;9.53;;;8.67;;
13279;SDS011;6708;49.814;8.652;2023-12-14T07:04:52;9.57;;;8.70;;
13279;SDS011;6708;49.814;8.652;2023-12-14T07:07:21;11.07;;;9.10;;
13279;SDS011;6708;49.814;8.652;2023-12-14T07:09:49;11.10;;;9.33;;
13279;SDS011;6708;49.814;8.652;2023-12-14T07:12:18;10.43;;;9.30;;
13279;SDS011;6708;49.814;8.652;2023-12-14T07:14:49;8.87;;;7.97;;
13279;SDS011;6708;49.814;8.652;2023-12-14T07:17:17;8.63;;;7.13;;
13279;SDS011;6708;49.814;8.652;2023-12-14T07:19:46;7.97;;;7.17;;
13279;SDS011;6708;49.814;8.652;2023-12-14T07:22:14;9.60;;;8.70;;
13279;SDS011;6708;49.814;8.652;2023-12-14T07:24:42;10.43;;;9.47;;
13279;SDS011;6708;49.814;8.652;2023-12-14T07:27:11;11.47;;;8.73;;
13279;SDS011;6708;49.814;8.652;2023-12-14T07:29:39;11.80;;;9.17;;
13279;SDS011;6708;49.814;8.652;2023-12-14T07:32:10;9.97;;;8.03;;
13279;SDS011;6708;49.814;8.652;2023-12-14T07:34:39;10.57;;;9.50;;
13279;SDS011;6708;49.814;8.652;2023-12-14T07:37:07;10.23;;;9.23;;
13279;SDS011;6708;49.814;8.652;2023-12-14T07:39:36;10.80;;;9.73;;
13279;SDS011;6708;49.814;8.652;2023-12-14T07:42:05;11.53;;;9.93;;
13279;SDS011;6708;49.814;8.652;2023-12-14T07:44:33;11.17;;;10.07;;
13279;SDS011;6708;49.814;8.652;2023-12-14T07:47:02;13.50;;;11.03;;
13279;SDS011;6708;49.814;8.652;2023-12-14T07:49:34;14.00;;;10.77;;
13279;SDS011;6708;49.814;8.652;2023-12-14T07:52:03;11.57;;;10.37;;
13279;SDS011;6708;49.814;8.652;2023-12-14T07:54:32;10.40;;;9.50;;
13279;SDS011;6708;49.814;8.652;2023-12-14T07:57:00;10.90;;;9.90;;
13279;SDS011;6708;49.814;8.652;2023-12-14T07:59:29;11.80;;;9.53;;
13279;SDS011;6708;49.814;8.652;2023-12-14T08:01:57;9.00;;;8.10;;
13279;SDS011;6708;49.814;8.652;2023-12-14T08:04:26;13.37;;;9.67;;
13279;SDS011;6708;49.814;8.652;2023-12-14T08:06:57;12.60;;;8.67;;
13279;SDS011;6708;49.814;8.652;2023-12-14T08:09:25;9.60;;;8.63;;
13279;SDS011;6708;49.814;8.652;2023-12-14T08:11:53;8.57;;;7.77;;
13279;SDS011;6708;49.814;8.652;2023-12-14T08:14:22;8.30;;;7.50;;
13279;SDS011;6708;49.814;8.652;2023-12-14T08:16:50;8.50;;;7.80;;
13279;SDS011;6708;49.814;8.652;2023-12-14T08:19:18;9.37;;;8.00;;
13279;SDS011;6708;49.814;8.652;2023-12-14T08:21:47;15.23;;;7.13;;
13279;SDS011;6708;49.814;8.652;2023-12-14T08:24:18;8.87;;;7.97;;
13279;SDS011;6708;49.814;8.652;2023-12-14T08:26:46;11.03;;;7.57;;
13279;SDS011;6708;49.814;8.652;2023-12-14T08:29:16;8.67;;;7.77;;
13279;SDS011;6708;49.814;8.652;2023-12-14T08:31:44;7.63;;;6.90;;
13279;SDS011;6708;49.814;8.652;2023-12-14T08:34:13;9.63;;;7.33;;
13279;SDS011;6708;49.814;8.652;2023-12-14T08:36:41;11.53;;;7.27;;
13279;SDS011;6708;49.814;8.652;2023-12-14T08:39:09;12.03;;;7.87;;
13279;SDS011;6708;49.814;8.652;2023-12-14T08:41:40;9.03;;;7.30;;
13279;SDS011;6708;49.814;8.652;2023-12-14T08:44:10;8.13;;;7.10;;
13279;SDS011;6708;49.814;8.652;2023-12-14T08:46:39;15.07;;;7.73;;
13279;SDS011;6708;49.814;8.652;2023-12-14T08:49:07;8.20;;;7.40;;
13279;SDS011;6708;49.814;8.652;2023-12-14T08:51:35;8.13;;;7.30;;
13279;SDS011;6708;49.814;8.652;2023-12-14T08:54:04;7.10;;;6.40;;
13279;SDS011;6708;49.814;8.652;2023-12-14T08:56:33;8.27;;;7.43;;
13279;SDS011;6708;49.814;8.652;2023-12-14T08:59:04;8.23;;;7.40;;
13279;SDS011;6708;49.814;8.652;2023-12-14T09:01:32;8.17;;;7.40;;
13279;SDS011;6708;49.814;8.652;2023-12-14T09:04:01;8.70;;;7.90;;
13279;SDS011;6708;49.814;8.652;2023-12-14T09:06:29;10.07;;;8.33;;
13279;SDS011;6708;49.814;8.652;2023-12-14T09:08:57;8.07;;;7.27;;
13279;SDS011;6708;49.814;8.652;2023-12-14T09:11:26;9.83;;;7.70;;
13279;SDS011;6708;49.814;8.652;2023-12-14T09:13:54;9.97;;;7.80;;
13279;SDS011;6708;49.814;8.652;2023-12-14T09:16:26;9.57;;;8.57;;
13279;SDS011;6708;49.814;8.652;2023-12-14T09:18:54;8.47;;;7.63;;
13279;SDS011;6708;49.814;8.652;2023-12-14T09:21:22;8.67;;;7.53;;
13279;SDS011;6708;49.814;8.652;2023-12-14T09:23:51;10.00;;;8.47;;
13279;SDS011;6708;49.814;8.652;2023-12-14T09:26:19;8.53;;;7.67;;
13279;SDS011;6708;49.814;8.652;2023-12-14T09:28:48;8.40;;;7.70;;
13279;SDS011;6708;49.814;8.652;2023-12-14T09:31:16;9.10;;;7.50;;
13279;SDS011;6708;49.814;8.652;2023-12-14T09:33:47;7.97;;;7.27;;
13279;SDS011;6708;49.814;8.652;2023-12-14T09:36:16;7.73;;;7.10;;
13279;SDS011;6708;49.814;8.652;2023-12-14T09:38:44;11.63;;;8.17;;
13279;SDS011;6708;49.814;8.652;2023-12-14T09:41:13;10.87;;;7.83;;
13279;SDS011;6708;49.814;8.652;2023-12-14T09:43:41;9.07;;;7.50;;
13279;SDS011;6708;49.814;8.652;2023-12-14T09:46:10;8.77;;;7.87;;
13279;SDS011;6708;49.814;8.652;2023-12-14T09:48:39;9.10;;;8.20;;
13279;SDS011;6708;49.814;8.652;2023-12-14T09:51:10;8.63;;;7.57;;
13279;SDS011;6708;49.814;8.652;2023-12-14T09:53:40;9.10;;;7.00;;
13279;SDS011;6708;49.814;8.652;2023-12-14T09:56:08;11.67;;;7.73;;
13279;SDS011;6708;49.814;8.652;2023-12-14T09:58:37;8.73;;;7.80;;
13279;SDS011;6708;49.814;8.652;2023-12-14T10:01:20;7.83;;;7.13;;
13279;SDS011;6708;49.814;8.652;2023-12-14T10:03:49;9.53;;;7.50;;
13279;SDS011;6708;49.814;8.652;2023-12-14T10:06:20;9.60;;;8.00;;
13279;SDS011;6708;49.814;8.652;2023-12-14T10:08:54;9.63;;;8.60;;
13279;SDS011;6708;49.814;8.652;2023-12-14T10:11:23;8.37;;;7.57;;
13279;SDS011;6708;49.814;8.652;2023-12-14T10:13:52;8.00;;;7.20;;
13279;SDS011;6708;49.814;8.652;2023-12-14T10:16:27;11.30;;;7.97;;
13279;SDS011;6708;49.814;8.652;2023-12-14T10:18:57;7.90;;;7.10;;
13279;SDS011;6708;49.814;8.652;2023-12-14T10:21:28;8.03;;;7.23;;
13279;SDS011;6708;49.814;8.652;2023-12-14T10:23:56;8.77;;;8.00;;
13279;SDS011;6708;49.814;8.652;2023-12-14T10:26:25;8.47;;;7.60;;
13279;SDS011;6708;49.814;8.652;2023-12-14T10:28:54;9.20;;;7.67;;
13279;SDS011;6708;49.814;8.652;2023-12-14T10:31:22;8.87;;;7.97;;
13279;SDS011;6708;49.814;8.652;2023-12-14T10:33:52;10.00;;;7.33;;
13279;SDS011;6708;49.814;8.652;2023-12-14T10:36:21;8.10;;;7.17;;
13279;SDS011;6708;49.814;8.652;2023-12-14T10:38:53;7.40;;;6.70;;
13279;SDS011;6708;49.814;8.652;2023-12-14T10:41:22;9.13;;;8.23;;
13279;SDS011;6708;49.814;8.652;2023-12-14T10:43:51;8.27;;;7.57;;
13279;SDS011;6708;49.814;8.652;2023-12-14T10:46:21;10.13;;;8.17;;
13279;SDS011;6708;49.814;8.652;2023-12-14T10:48:51;9.70;;;7.47;;
13279;SDS011;6708;49.814;8.652;2023-12-14T10:51:21;8.23;;;7.43;;
13279;SDS011;6708;49.814;8.652;2023-12-14T10:53:53;8.13;;;7.33;;
13279;SDS011;6708;49.814;8.652;2023-12-14T10:56:22;8.23;;;7.43;;
13279;SDS011;6708;49.814;8.652;2023-12-14T10:58:52;8.17;;;7.27;;
13279;SDS011;6708;49.814;8.652;2023-12-14T11:01:21;10.33;;;7.17;;
13279;SDS011;6708;49.814;8.652;2023-12-14T11:03:53;8.37;;;7.50;;
13279;SDS011;6708;49.814;8.652;2023-12-14T11:06:30;8.40;;;7.53;;
13279;SDS011;6708;49.814;8.652;2023-12-14T11:09:04;8.80;;;7.93;;
13279;SDS011;6708;49.814;8.652;2023-12-14T11:11:39;9.77;;;7.40;;
13279;SDS011;6708;49.814;8.652;2023-12-14T11:14:10;7.73;;;6.90;;
13279;SDS011;6708;49.814;8.652;2023-12-14T11:16:44;7.40;;;6.57;;
13279;SDS011;6708;49.814;8.652;2023-12-14T11:22:11;6.40;;;5.83;;
13279;SDS011;6708;49.814;8.652;2023-12-14T11:24:46;7.50;;;6.80;;
13279;SDS011;6708;49.814;8.652;2023-12-14T11:27:28;5.47;;;5.00;;
13279;SDS011;6708;49.814;8.652;2023-12-14T11:29:58;5.10;;;4.70;;
13279;SDS011;6708;49.814;8.652;2023-12-14T11:32:26;4.73;;;4.30;;
13279;SDS011;6708;49.814;8.652;2023-12-14T11:34:55;4.20;;;3.90;;
13279;SDS011;6708;49.814;8.652;2023-12-14T11:37:23;4.27;;;3.97;;
13279;SDS011;6708;49.814;8.652;2023-12-14T11:39:55;4.17;;;3.90;;
13279;SDS011;6708;49.814;8.652;2023-12-14T11:42:24;3.97;;;3.77;;
13279;SDS011;6708;49.814;8.652;2023-12-14T11:44:56;4.00;;;3.70;;
13279;SDS011;6708;49.814;8.652;2023-12-14T11:47:25;3.40;;;3.20;;
13279;SDS011;6708;49.814;8.652;2023-12-14T11:49:53;3.13;;;3.00;;
13279;SDS011;6708;49.814;8.652;2023-12-14T11:52:22;3.60;;;3.30;;
13279;SDS011;6708;49.814;8.652;2023-12-14T11:54:50;3.90;;;3.57;;
13279;SDS011;6708;49.814;8.652;2023-12-14T11:57:27;2.93;;;2.77;;
13279;SDS011;6708;49.814;8.652;2023-12-14T11:59:57;3.00;;;2.87;;
13279;SDS011;6708;49.814;8.652;2023-12-14T12:02:26;3.17;;;2.97;;
13279;SDS011;6708;49.814;8.652;2023-12-14T12:04:54;3.03;;;2.93;;
13279;SDS011;6708;49.814;8.652;2023-12-14T12:07:23;5.33;;;4.50;;
13279;SDS011;6708;49.814;8.652;2023-12-14T12:09:51;4.90;;;4.37;;
13279;SDS011;6708;49.814;8.652;2023-12-14T12:12:20;3.40;;;3.20;;
13279;SDS011;6708;49.814;8.652;2023-12-14T12:14:51;12.63;;;7.27;;
13279;SDS011;6708;49.814;8.652;2023-12-14T12:17:20;6.93;;;4.90;;
13279;SDS011;6708;49.814;8.652;2023-12-14T12:19:48;3.40;;;3.20;;
13279;SDS011;6708;49.814;8.652;2023-12-14T12:22:16;2.93;;;2.73;;
13279;SDS011;6708;49.814;8.652;2023-12-14T12:24:45;5.00;;;4.30;;
13279;SDS011;6708;49.814;8.652;2023-12-14T12:27:13;2.70;;;2.60;;
13279;SDS011;6708;49.814;8.652;2023-12-14T12:29:44;3.60;;;3.37;;
13279;SDS011;6708;49.814;8.652;2023-12-14T12:32:13;2.60;;;2.40;;
13279;SDS011;6708;49.814;8.652;2023-12-14T12:34:41;3.03;;;2.83;;
13279;SDS011;6708;49.814;8.652;2023-12-14T12:37:09;3.07;;;2.87;;
13279;SDS011;6708;49.814;8.652;2023-12-14T12:39:38;4.60;;;3.63;;
13279;SDS011;6708;49.814;8.652;2023-12-14T12:42:07;2.80;;;2.60;;
13279;SDS011;6708;49.814;8.652;2023-12-14T12:44:35;2.70;;;2.53;;
13279;SDS011;6708;49.814;8.652;2023-12-14T12:47:08;3.50;;;3.27;;
13279;SDS011;6708;49.814;8.652;2023-12-14T12:49:37;6.90;;;3.93;;
13279;SDS011;6708;49.814;8.652;2023-12-14T12:52:05;3.13;;;2.93;;
13279;SDS011;6708;49.814;8.652;2023-12-14T12:54:34;3.43;;;3.13;;
13279;SDS011;6708;49.814;8.652;2023-12-14T12:57:02;3.53;;;3.33;;
13279;SDS011;6708;49.814;8.652;2023-12-14T12:59:31;3.63;;;3.43;;
13279;SDS011;6708;49.814;8.652;2023-12-14T13:01:59;4.00;;;3.70;;
13279;SDS011;6708;49.814;8.652;2023-12-14T13:04:31;4.50;;;4.10;;
13279;SDS011;6708;49.814;8.652;2023-12-14T13:06:59;4.70;;;3.73;;
13279;SDS011;6708;49.814;8.652;2023-12-14T13:09:29;4.37;;;4.00;;
13279;SDS011;6708;49.814;8.652;2023-12-14T13:11:58;4.50;;;4.13;;
13279;SDS011;6708;49.814;8.652;2023-12-14T13:14:27;5.87;;;4.60;;
13279;SDS011;6708;49.814;8.652;2023-12-14T13:16:56;4.47;;;4.13;;
13279;SDS011;6708;49.814;8.652;2023-12-14T13:19:24;4.53;;;4.13;;
13279;SDS011;6708;49.814;8.652;2023-12-14T13:21:57;4.63;;;4.20;;
13279;SDS011;6708;49.814;8.652;2023-12-14T13:24:27;4.87;;;4.50;;
13279;SDS011;6708;49.814;8.652;2023-12-14T13:26:55;7.20;;;4.80;;
13279;SDS011;6708;49.814;8.652;2023-12-14T13:29:24;4.80;;;4.23;;
13279;SDS011;6708;49.814;8.652;2023-12-14T13:31:52;4.80;;;4.40;;
13279;SDS011;6708;49.814;8.652;2023-12-14T13:34:21;5.17;;;4.67;;
13279;SDS011;6708;49.814;8.652;2023-12-14T13:36:49;4.63;;;4.30;;
13279;SDS011;6708;49.814;8.652;2023-12-14T13:39:20;4.13;;;3.73;;
13279;SDS011;6708;49.814;8.652;2023-12-14T13:41:49;3.93;;;3.67;;
13279;SDS011;6708;49.814;8.652;2023-12-14T13:44:17;3.20;;;3.00;;
13279;SDS011;6708;49.814;8.652;2023-12-14T13:46:46;3.97;;;3.67;;
13279;SDS011;6708;49.814;8.652;2023-12-14T13:49:14;4.00;;;3.80;;
13279;SDS011;6708;49.814;8.652;2023-12-14T13:51:43;4.03;;;3.73;;
13279;SDS011;6708;49.814;8.652;2023-12-14T13:54:13;4.07;;;3.77;;
13279;SDS011;6708;49.814;8.652;2023-12-14T13:56:44;4.03;;;3.73;;
13279;SDS011;6708;49.814;8.652;2023-12-14T13:59:13;3.87;;;3.67;;
13279;SDS011;6708;49.814;8.652;2023-12-14T14:01:41;5.40;;;5.00;;
13279;SDS011;6708;49.814;8.652;2023-12-14T14:04:10;5.70;;;5.30;;
13279;SDS011;6708;49.814;8.652;2023-12-14T14:06:39;5.47;;;5.03;;
13279;SDS011;6708;49.814;8.652;2023-12-14T14:09:07;5.10;;;4.80;;
13279;SDS011;6708;49.814;8.652;2023-12-14T14:11:36;9.03;;;5.60;;
13279;SDS011;6708;49.814;8.652;2023-12-14T14:14:09;5.63;;;5.13;;
13279;SDS011;6708;49.814;8.652;2023-12-14T14:16:37;5.43;;;5.03;;
13279;SDS011;6708;49.814;8.652;2023-12-14T14:19:06;6.40;;;5.80;;
13279;SDS011;6708;49.814;8.652;2023-12-14T14:21:34;6.07;;;5.50;;
13279;SDS011;6708;49.814;8.652;2023-12-14T14:24:03;5.70;;;5.20;;
13279;SDS011;6708;49.814;8.652;2023-12-14T14:26:33;5.50;;;5.00;;
13279;SDS011;6708;49.814;8.652;2023-12-14T14:29:02;5.00;;;4.60;;
13279;SDS011;6708;49.814;8.652;2023-12-14T14:31:33;5.43;;;4.97;;
13279;SDS011;6708;49.814;8.652;2023-12-14T14:34:01;5.40;;;4.90;;
13279;SDS011;6708;49.814;8.652;2023-12-14T14:36:30;4.20;;;3.90;;
13279;SDS011;6708;49.814;8.652;2023-12-14T14:38:59;5.10;;;4.63;;
13279;SDS011;6708;49.814;8.652;2023-12-14T14:41:29;5.50;;;5.00;;
13279;SDS011;6708;49.814;8.652;2023-12-14T14:43:58;6.17;;;4.80;;
13279;SDS011;6708;49.814;8.652;2023-12-14T14:46:29;5.27;;;4.77;;
13279;SDS011;6708;49.814;8.652;2023-12-14T14:49:00;4.93;;;4.53;;
13279;SDS011;6708;49.814;8.652;2023-12-14T14:51:28;5.43;;;4.93;;
13279;SDS011;6708;49.814;8.652;2023-12-14T14:53:57;5.77;;;5.03;;
13279;SDS011;6708;49.814;8.652;2023-12-14T14:56:26;5.60;;;5.10;;
13279;SDS011;6708;49.814;8.652;2023-12-14T14:58:54;6.13;;;4.97;;
13279;SDS011;6708;49.814;8.652;2023-12-14T15:01:23;5.13;;;4.63;;
13279;SDS011;6708;49.814;8.652;2023-12-14T15:03:53;4.50;;;4.10;;
13279;SDS011;6708;49.814;8.652;2023-12-14T15:06:24;5.07;;;4.67;;
13279;SDS011;6708;49.814;8.652;2023-12-14T15:08:53;4.90;;;4.60;;
13279;SDS011;6708;49.814;8.652;2023-12-14T15:11:21;5.23;;;4.50;;
13279;SDS011;6708;49.814;8.652;2023-12-14T15:13:50;7.97;;;6.73;;